createdAt,value
2023-01-08T00:02:22.028Z,3.30
2023-01-08T00:05:08.313Z,3.40
2023-01-08T00:07:54.478Z,3.50
2023-01-08T00:10:40.645Z,3.50
2023-01-08T00:13:26.728Z,3.50
2023-01-08T00:16:14.318Z,3.40
2023-01-08T00:19:00.167Z,3.50
2023-01-08T00:21:46.242Z,3.60
2023-01-08T00:24:32.404Z,3.50
2023-01-08T00:27:18.470Z,3.60
2023-01-08T00:30:04.755Z,3.70
2023-01-08T00:32:50.683Z,3.90
2023-01-08T00:35:40.440Z,4.10
2023-01-08T00:38:27.046Z,4.20
2023-01-08T00:41:13.381Z,4.30
2023-01-08T00:43:59.123Z,4.30
2023-01-08T00:46:45.244Z,4.10
2023-01-08T00:49:31.465Z,4.00
2023-01-08T00:52:17.315Z,3.90
2023-01-08T00:55:03.624Z,3.80
2023-01-08T00:57:49.337Z,3.70
2023-01-08T01:00:35.471Z,3.80
2023-01-08T01:03:21.587Z,3.90
2023-01-08T01:06:07.732Z,3.80
2023-01-08T01:08:53.485Z,3.70
2023-01-08T01:11:39.458Z,3.70
2023-01-08T01:14:25.583Z,3.60
2023-01-08T01:17:12.621Z,3.50
2023-01-08T01:19:58.862Z,3.40
2023-01-08T01:22:44.772Z,3.40
2023-01-08T01:25:30.729Z,3.30
2023-01-08T01:28:16.905Z,3.30
2023-01-08T01:31:03.855Z,3.30
2023-01-08T01:33:50.274Z,3.30
2023-01-08T01:36:37.278Z,3.30
2023-01-08T01:39:23.240Z,3.40
2023-01-08T01:42:37.386Z,3.30
2023-01-08T01:45:24.605Z,3.10
2023-01-08T01:48:11.864Z,3.00
2023-01-08T01:50:57.807Z,3.00
2023-01-08T01:53:43.699Z,3.00
2023-01-08T01:56:29.625Z,3.10
2023-01-08T01:59:16.017Z,3.20
2023-01-08T02:02:02.118Z,3.20
2023-01-08T02:04:48.350Z,3.30
2023-01-08T02:07:37.386Z,3.40
2023-01-08T02:10:29.780Z,3.30
2023-01-08T02:13:20.590Z,3.00
2023-01-08T02:16:12.616Z,2.90
2023-01-08T02:19:02.962Z,3.00
2023-01-08T02:22:07.519Z,3.10
2023-01-08T02:24:56.057Z,3.20
2023-01-08T02:27:44.398Z,3.10
2023-01-08T02:30:30.412Z,3.10
2023-01-08T02:33:16.196Z,3.10
2023-01-08T02:36:14.549Z,3.00
2023-01-08T02:39:06.755Z,3.00
2023-01-08T02:42:08.171Z,2.80
2023-01-08T02:44:56.782Z,2.80
2023-01-08T02:47:45.467Z,2.80
2023-01-08T02:50:34.374Z,2.80
2023-01-08T02:53:23.126Z,2.80
2023-01-08T02:56:14.618Z,2.80
2023-01-08T02:59:01.885Z,2.80
2023-01-08T03:01:48.370Z,2.70
2023-01-08T03:04:40.130Z,2.70
2023-01-08T03:07:26.047Z,2.80
2023-01-08T03:10:12.599Z,2.80
2023-01-08T03:13:01.518Z,2.80
2023-01-08T03:15:49.680Z,2.70
2023-01-08T03:18:37.897Z,2.60
2023-01-08T03:21:24.105Z,2.40
2023-01-08T03:24:12.268Z,2.50
2023-01-08T03:26:59.581Z,2.40
2023-01-08T03:29:46.825Z,2.50
2023-01-08T03:32:33.689Z,2.50
2023-01-08T03:35:22.462Z,2.50
2023-01-08T03:38:12.583Z,2.40
2023-01-08T03:41:01.755Z,2.40
2023-01-08T03:43:47.731Z,2.50
2023-01-08T03:46:35.780Z,2.50
2023-01-08T03:49:22.849Z,2.50
2023-01-08T03:52:08.825Z,2.50
2023-01-08T03:54:54.879Z,2.50
2023-01-08T03:57:40.782Z,2.50
2023-01-08T04:00:26.832Z,2.30
2023-01-08T04:03:12.758Z,2.20
2023-01-08T04:06:01.753Z,1.90
2023-01-08T04:08:48.093Z,2.00
2023-01-08T04:11:34.251Z,1.80
2023-01-08T04:14:20.130Z,2.00
2023-01-08T04:17:06.086Z,1.90
2023-01-08T04:19:52.071Z,2.00
2023-01-08T04:22:38.052Z,2.10
2023-01-08T04:25:24.119Z,2.10
2023-01-08T04:28:09.812Z,2.20
2023-01-08T04:30:55.969Z,2.30
2023-01-08T04:33:41.837Z,2.30
2023-01-08T04:36:27.930Z,2.40
2023-01-08T04:39:13.874Z,2.30
2023-01-08T04:41:59.898Z,2.30
2023-01-08T04:44:45.727Z,2.40
2023-01-08T04:47:31.734Z,2.40
2023-01-08T04:50:17.722Z,2.30
2023-01-08T04:53:03.905Z,2.30
2023-01-08T04:55:49.972Z,2.20
2023-01-08T04:58:36.526Z,2.00
2023-01-08T05:01:23.840Z,2.00
2023-01-08T05:04:10.806Z,2.00
2023-01-08T05:06:56.457Z,2.00
2023-01-08T05:09:42.507Z,2.10
2023-01-08T05:12:28.413Z,2.10
2023-01-08T05:15:14.462Z,2.30
2023-01-08T05:18:01.642Z,2.30
2023-01-08T05:20:47.242Z,2.30
2023-01-08T05:23:33.576Z,2.20
2023-01-08T05:26:19.520Z,2.20
2023-01-08T05:29:05.396Z,2.20
2023-01-08T05:31:51.446Z,2.20
2023-01-08T05:34:37.393Z,2.30
2023-01-08T05:37:23.637Z,2.30
2023-01-08T05:40:10.073Z,2.30
2023-01-08T05:42:56.119Z,2.10
2023-01-08T05:45:42.287Z,2.00
2023-01-08T05:48:29.157Z,1.90
2023-01-08T05:51:15.108Z,1.80
2023-01-08T05:54:01.251Z,1.80
2023-01-08T05:56:47.138Z,1.90
2023-01-08T05:59:33.165Z,2.00
2023-01-08T06:02:19.314Z,2.10
2023-01-08T06:05:05.573Z,2.20
2023-01-08T06:07:51.319Z,2.30
2023-01-08T06:10:38.040Z,2.30
2023-01-08T06:13:24.214Z,2.30
2023-01-08T06:16:10.776Z,2.30
2023-01-08T06:18:56.854Z,2.30
2023-01-08T06:21:42.811Z,2.40
2023-01-08T06:24:28.839Z,2.40
2023-01-08T06:27:14.724Z,2.40
2023-01-08T06:30:00.954Z,2.30
2023-01-08T06:32:47.034Z,2.30
2023-01-08T06:35:33.003Z,2.20
2023-01-08T06:38:19.430Z,2.10
2023-01-08T06:41:06.975Z,2.20
2023-01-08T06:43:52.674Z,2.20
2023-01-08T06:46:40.436Z,2.20
2023-01-08T06:49:26.692Z,2.30
2023-01-08T06:52:12.620Z,2.30
2023-01-08T06:54:58.541Z,2.40
2023-01-08T06:57:44.527Z,2.40
2023-01-08T07:00:30.463Z,2.40
2023-01-08T07:03:16.981Z,2.50
2023-01-08T07:06:03.153Z,2.50
2023-01-08T07:08:49.144Z,2.60
2023-01-08T07:11:35.000Z,2.60
2023-01-08T07:14:20.967Z,2.50
2023-01-08T07:17:07.420Z,2.40
2023-01-08T07:19:53.683Z,2.20
2023-01-08T07:22:39.671Z,2.00
2023-01-08T07:25:26.037Z,1.90
2023-01-08T07:28:13.061Z,1.90
2023-01-08T07:31:02.560Z,2.10
2023-01-08T07:33:48.661Z,2.30
2023-01-08T07:36:34.913Z,2.60
2023-01-08T07:39:20.981Z,2.90
2023-01-08T07:42:06.970Z,3.20
2023-01-08T07:44:53.102Z,3.30
2023-01-08T07:47:38.778Z,3.20
2023-01-08T07:50:24.856Z,3.30
2023-01-08T07:53:11.552Z,3.30
2023-01-08T07:56:01.030Z,3.30
2023-01-08T07:58:46.855Z,3.40
2023-01-08T08:01:32.994Z,3.30
2023-01-08T08:04:19.296Z,3.50
2023-01-08T08:07:05.609Z,3.50
2023-01-08T08:09:51.629Z,3.60
2023-01-08T08:12:37.733Z,3.80
2023-01-08T08:15:23.655Z,3.70
2023-01-08T08:18:10.168Z,3.80
2023-01-08T08:20:56.427Z,4.00
2023-01-08T08:23:42.223Z,4.20
2023-01-08T08:26:28.254Z,4.30
2023-01-08T08:29:14.339Z,4.20
2023-01-08T08:32:00.497Z,4.30
2023-01-08T08:34:46.429Z,4.40
2023-01-08T08:37:32.457Z,4.40
2023-01-08T08:40:18.422Z,4.40
2023-01-08T08:43:05.363Z,4.50
2023-01-08T08:45:51.371Z,4.60
2023-01-08T08:48:37.311Z,4.60
2023-01-08T08:51:23.259Z,4.70
2023-01-08T08:54:10.545Z,4.80
2023-01-08T08:56:56.346Z,5.00
2023-01-08T08:59:43.298Z,5.00
2023-01-08T09:02:29.592Z,5.00
2023-01-08T09:05:15.661Z,5.10
2023-01-08T09:08:01.664Z,5.20
2023-01-08T09:10:47.673Z,5.40
2023-01-08T09:13:33.764Z,5.50
2023-01-08T09:16:20.014Z,5.80
2023-01-08T09:19:07.063Z,6.10
2023-01-08T09:21:53.225Z,6.20
2023-01-08T09:24:39.318Z,6.20
2023-01-08T09:27:25.290Z,6.10
2023-01-08T09:30:11.725Z,6.00
2023-01-08T09:33:01.324Z,6.10
2023-01-08T09:35:48.151Z,6.10
2023-01-08T09:38:34.092Z,6.10
2023-01-08T09:41:26.745Z,6.20
2023-01-08T09:44:18.447Z,6.40
2023-01-08T09:47:06.094Z,6.50
2023-01-08T09:49:53.062Z,6.70
2023-01-08T09:52:39.275Z,7.10
2023-01-08T09:55:25.786Z,7.40
2023-01-08T09:58:31.086Z,7.70
2023-01-08T10:01:20.937Z,8.30
2023-01-08T10:04:13.214Z,9.20
2023-01-08T10:07:14.301Z,10.00
2023-01-08T10:10:00.451Z,10.50
2023-01-08T10:12:46.869Z,10.90
2023-01-08T10:15:32.553Z,11.20
2023-01-08T10:18:19.666Z,11.30
2023-01-08T10:21:05.615Z,11.40
2023-01-08T10:23:52.592Z,11.30
2023-01-08T10:26:38.828Z,11.90
2023-01-08T10:29:25.242Z,12.40
2023-01-08T10:32:19.436Z,12.70
2023-01-08T10:35:07.782Z,13.00
2023-01-08T10:37:53.854Z,13.10
2023-01-08T10:40:47.895Z,12.90
2023-01-08T10:43:36.791Z,13.00
2023-01-08T10:46:28.788Z,13.30
2023-01-08T10:49:17.449Z,13.50
2023-01-08T10:52:03.478Z,13.50
2023-01-08T10:54:49.560Z,13.10
2023-01-08T10:57:35.472Z,12.50
2023-01-08T11:00:25.495Z,12.00
2023-01-08T11:03:22.264Z,11.40
2023-01-08T11:06:12.677Z,10.90
2023-01-08T11:08:59.975Z,10.50
2023-01-08T11:11:45.926Z,10.20
2023-01-08T11:14:35.206Z,10.00
2023-01-08T11:17:24.341Z,9.90
2023-01-08T11:20:19.894Z,9.80
2023-01-08T11:23:06.830Z,9.70
2023-01-08T11:26:00.035Z,9.60
2023-01-08T11:29:04.575Z,9.60
2023-01-08T11:32:09.232Z,9.60
2023-01-08T11:35:04.172Z,9.80
2023-01-08T11:37:54.556Z,10.10
2023-01-08T11:40:44.529Z,10.30
2023-01-08T11:43:36.742Z,10.50
2023-01-08T11:46:29.005Z,10.70
2023-01-08T11:49:34.330Z,10.90
2023-01-08T11:52:41.363Z,10.90
2023-01-08T11:55:39.253Z,10.90
2023-01-08T11:58:44.143Z,10.70
2023-01-08T12:01:42.558Z,10.70
2023-01-08T12:04:37.471Z,10.60
2023-01-08T12:07:25.842Z,10.50
2023-01-08T12:10:22.112Z,10.40
2023-01-08T12:13:20.418Z,10.30
2023-01-08T12:16:19.144Z,10.20
2023-01-08T12:19:20.605Z,10.10
2023-01-08T12:22:15.813Z,10.00
2023-01-08T12:25:20.752Z,10.10
2023-01-08T12:28:15.844Z,10.20
2023-01-08T12:31:20.953Z,10.20
2023-01-08T12:34:12.297Z,10.30
2023-01-08T12:37:03.563Z,10.20
2023-01-08T12:40:16.088Z,10.20
2023-01-08T12:43:05.883Z,10.00
2023-01-08T12:45:53.421Z,10.00
2023-01-08T12:48:39.722Z,9.90
2023-01-08T12:51:31.868Z,9.90
2023-01-08T12:54:30.145Z,9.90
2023-01-08T12:57:25.222Z,9.90
2023-01-08T13:00:17.288Z,10.00
2023-01-08T13:03:05.174Z,10.10
2023-01-08T13:05:51.247Z,10.10
2023-01-08T13:08:38.252Z,10.10
2023-01-08T13:11:25.271Z,10.20
2023-01-08T13:14:12.240Z,10.20
2023-01-08T13:17:02.763Z,10.00
2023-01-08T13:19:55.467Z,10.00
2023-01-08T13:22:41.738Z,10.00
2023-01-08T13:25:29.497Z,10.00
2023-01-08T13:28:24.737Z,9.90
2023-01-08T13:31:27.239Z,9.90
2023-01-08T13:34:40.643Z,9.90
2023-01-08T13:37:27.788Z,9.90
2023-01-08T13:40:32.960Z,10.00
2023-01-08T13:43:36.143Z,10.00
2023-01-08T13:46:21.855Z,10.00
2023-01-08T13:49:09.715Z,10.00
2023-01-08T13:51:55.611Z,10.00
2023-01-08T13:54:43.193Z,10.00
2023-01-08T13:57:34.108Z,10.00
2023-01-08T14:00:30.964Z,10.00
2023-01-08T14:03:23.956Z,10.00
2023-01-08T14:06:23.512Z,9.90
2023-01-08T14:09:18.351Z,10.00
2023-01-08T14:12:04.385Z,9.80
2023-01-08T14:14:54.538Z,9.80
2023-01-08T14:17:43.431Z,9.80
2023-01-08T14:20:35.729Z,9.70
2023-01-08T14:23:27.418Z,9.70
2023-01-08T14:26:33.122Z,9.70
2023-01-08T14:29:23.545Z,9.80
2023-01-08T14:32:15.998Z,9.80
2023-01-08T14:35:03.938Z,9.90
2023-01-08T14:37:49.841Z,9.80
2023-01-08T14:40:38.071Z,9.80
2023-01-08T14:43:23.990Z,9.80
2023-01-08T14:46:18.457Z,9.80
2023-01-08T14:49:04.276Z,9.80
2023-01-08T14:51:52.353Z,9.90
2023-01-08T14:54:38.761Z,9.90
2023-01-08T14:57:25.636Z,9.90
2023-01-08T15:00:16.062Z,10.00
2023-01-08T15:03:02.136Z,9.90
2023-01-08T15:05:48.930Z,9.90
2023-01-08T15:08:39.131Z,9.90
2023-01-08T15:11:26.390Z,9.90
2023-01-08T15:14:13.302Z,9.90
2023-01-08T15:17:05.120Z,9.90
2023-01-08T15:19:52.858Z,9.80
2023-01-08T15:22:38.816Z,9.80
2023-01-08T15:25:26.737Z,9.80
2023-01-08T15:28:14.537Z,9.70
2023-01-08T15:31:00.370Z,9.70
2023-01-08T15:33:46.361Z,9.60
2023-01-08T15:36:32.498Z,9.50
2023-01-08T15:39:18.502Z,9.40
2023-01-08T15:42:52.333Z,9.30
2023-01-08T15:45:39.528Z,9.20
2023-01-08T15:48:25.213Z,9.20
2023-01-08T15:51:11.445Z,9.20
2023-01-08T15:53:57.384Z,9.10
2023-01-08T15:56:43.450Z,9.00
2023-01-08T15:59:31.545Z,8.90
2023-01-08T16:02:17.846Z,8.80
2023-01-08T16:05:04.216Z,8.70
2023-01-08T16:07:50.028Z,8.70
2023-01-08T16:10:36.009Z,8.70
2023-01-08T16:13:21.875Z,8.70
2023-01-08T16:16:11.527Z,8.60
2023-01-08T16:18:58.866Z,8.60
2023-01-08T16:21:47.654Z,8.60
2023-01-08T16:24:34.702Z,8.60
2023-01-08T16:27:20.817Z,8.50
2023-01-08T16:30:08.393Z,8.40
2023-01-08T16:32:54.238Z,8.40
2023-01-08T16:35:40.247Z,8.30
2023-01-08T16:38:26.478Z,8.30
2023-01-08T16:41:12.181Z,8.30
2023-01-08T16:43:58.243Z,8.30
2023-01-08T16:46:46.749Z,8.10
2023-01-08T16:49:33.561Z,8.10
2023-01-08T16:52:19.595Z,8.00
2023-01-08T16:55:06.519Z,7.90
2023-01-08T16:57:54.570Z,7.80
2023-01-08T17:00:41.290Z,7.70
2023-01-08T17:03:27.235Z,7.60
2023-01-08T17:06:14.223Z,7.50
2023-01-08T17:09:00.440Z,7.40
2023-01-08T17:11:47.749Z,7.40
2023-01-08T17:14:35.456Z,7.30
2023-01-08T17:17:21.262Z,7.30
2023-01-08T17:20:07.895Z,7.20
2023-01-08T17:22:54.154Z,7.20
2023-01-08T17:25:40.695Z,7.20
2023-01-08T17:28:28.598Z,7.20
2023-01-08T17:31:15.760Z,7.10
2023-01-08T17:34:01.775Z,7.10
2023-01-08T17:36:47.916Z,7.10
2023-01-08T17:39:34.060Z,7.10
2023-01-08T17:42:27.526Z,7.10
2023-01-08T17:45:13.443Z,7.10
2023-01-08T17:47:59.543Z,7.10
2023-01-08T17:50:45.527Z,7.10
2023-01-08T17:53:31.539Z,7.10
2023-01-08T17:56:17.563Z,7.10
2023-01-08T17:59:03.879Z,7.10
2023-01-08T18:01:51.443Z,7.10
2023-01-08T18:04:37.623Z,7.20
2023-01-08T18:07:23.886Z,7.30
2023-01-08T18:10:10.217Z,7.30
2023-01-08T18:12:56.586Z,7.30
2023-01-08T18:15:42.612Z,7.30
2023-01-08T18:18:28.918Z,7.30
2023-01-08T18:21:14.610Z,7.30
2023-01-08T18:24:01.197Z,7.30
2023-01-08T18:26:48.544Z,7.30
2023-01-08T18:29:34.702Z,7.20
2023-01-08T18:32:26.000Z,7.20
2023-01-08T18:35:12.843Z,7.10
2023-01-08T18:37:59.307Z,7.10
2023-01-08T18:40:45.767Z,7.10
2023-01-08T18:43:32.617Z,7.10
2023-01-08T18:46:19.408Z,7.00
2023-01-08T18:49:05.651Z,7.00
2023-01-08T18:51:51.653Z,7.00
2023-01-08T18:54:37.698Z,6.90
2023-01-08T18:57:24.196Z,6.90
2023-01-08T19:00:10.982Z,6.90
2023-01-08T19:02:57.329Z,7.00
2023-01-08T19:05:44.077Z,7.00
2023-01-08T19:08:30.060Z,7.00
2023-01-08T19:11:16.070Z,7.00
2023-01-08T19:14:02.187Z,7.00
2023-01-08T19:16:51.350Z,6.90
2023-01-08T19:19:37.271Z,6.90
2023-01-08T19:22:26.564Z,6.90
2023-01-08T19:25:14.929Z,6.90
2023-01-08T19:28:01.005Z,6.90
2023-01-08T19:30:53.655Z,6.90
2023-01-08T19:33:39.987Z,6.90
2023-01-08T19:36:26.104Z,6.90
2023-01-08T19:39:12.109Z,6.90
2023-01-08T19:42:27.498Z,6.90
2023-01-08T19:45:13.947Z,6.80
2023-01-08T19:47:59.974Z,6.80
2023-01-08T19:50:47.039Z,6.70
2023-01-08T19:53:33.227Z,6.70
2023-01-08T19:56:19.449Z,6.60
2023-01-08T19:59:05.239Z,6.60
2023-01-08T20:01:51.469Z,6.50
2023-01-08T20:04:43.880Z,6.30
2023-01-08T20:07:29.663Z,6.30
2023-01-08T20:10:15.861Z,6.30
2023-01-08T20:13:01.638Z,6.30
2023-01-08T20:15:55.147Z,6.30
2023-01-08T20:18:41.175Z,6.30
2023-01-08T20:21:27.615Z,6.30
2023-01-08T20:24:14.798Z,6.20
2023-01-08T20:27:00.835Z,6.20
2023-01-08T20:29:46.687Z,6.20
2023-01-08T20:32:32.687Z,6.10
2023-01-08T20:35:18.717Z,6.20
2023-01-08T20:38:04.921Z,6.10
2023-01-08T20:40:51.444Z,6.20
2023-01-08T20:43:38.160Z,6.20
2023-01-08T20:46:28.087Z,6.20
2023-01-08T20:49:16.652Z,6.20
2023-01-08T20:52:04.555Z,6.20
2023-01-08T20:54:50.732Z,6.20
2023-01-08T20:57:36.835Z,6.20
2023-01-08T21:00:24.898Z,6.20
2023-01-08T21:03:11.033Z,6.30
2023-01-08T21:05:56.742Z,6.30
2023-01-08T21:08:43.478Z,6.30
2023-01-08T21:11:29.517Z,6.40
2023-01-08T21:14:15.361Z,6.40
2023-01-08T21:17:01.385Z,6.40
2023-01-08T21:19:47.523Z,6.30
2023-01-08T21:22:33.539Z,6.30
2023-01-08T21:25:19.532Z,6.30
2023-01-08T21:28:05.772Z,6.30
2023-01-08T21:30:52.144Z,6.30
2023-01-08T21:33:38.361Z,6.40
2023-01-08T21:36:26.292Z,6.30
2023-01-08T21:39:12.106Z,6.30
2023-01-08T21:42:16.803Z,6.30
2023-01-08T21:45:41.347Z,6.20
2023-01-08T21:48:27.703Z,6.10
2023-01-08T21:51:32.180Z,6.10
2023-01-08T21:54:18.403Z,6.10
2023-01-08T21:57:04.396Z,6.10
2023-01-08T21:59:51.286Z,5.90
2023-01-08T22:02:37.108Z,5.90
2023-01-08T22:05:23.005Z,5.90
2023-01-08T22:08:09.587Z,5.90
2023-01-08T22:10:55.463Z,6.00
2023-01-08T22:13:41.301Z,6.10
2023-01-08T22:16:27.449Z,6.10
2023-01-08T22:19:13.315Z,6.20
2023-01-08T22:21:59.579Z,6.20
2023-01-08T22:24:45.348Z,6.20
2023-01-08T22:27:31.542Z,6.30
2023-01-08T22:30:17.651Z,6.30
2023-01-08T22:33:03.420Z,6.40
2023-01-08T22:35:49.601Z,6.30
2023-01-08T22:38:36.167Z,6.20
2023-01-08T22:41:22.762Z,6.20
2023-01-08T22:44:10.775Z,6.20
2023-01-08T22:46:59.039Z,6.10
2023-01-08T22:49:45.085Z,6.20
2023-01-08T22:52:31.133Z,6.20
2023-01-08T22:55:17.946Z,6.30
2023-01-08T22:58:03.763Z,6.30
2023-01-08T23:00:49.901Z,6.30
2023-01-08T23:03:36.006Z,6.40
2023-01-08T23:06:22.496Z,6.40
2023-01-08T23:09:08.396Z,6.40
2023-01-08T23:11:54.497Z,6.50
2023-01-08T23:14:41.297Z,6.50
2023-01-08T23:17:27.345Z,6.50
2023-01-08T23:20:13.881Z,6.40
2023-01-08T23:22:59.915Z,6.30
2023-01-08T23:25:45.854Z,6.20
2023-01-08T23:28:31.862Z,6.10
2023-01-08T23:31:19.306Z,6.10
2023-01-08T23:34:05.962Z,6.20
2023-01-08T23:36:51.792Z,6.20
2023-01-08T23:39:37.703Z,6.30
2023-01-08T23:42:23.673Z,6.30
2023-01-08T23:45:11.258Z,6.20
2023-01-08T23:47:57.275Z,6.30
2023-01-08T23:50:43.451Z,6.40
2023-01-08T23:53:29.532Z,6.40
2023-01-08T23:56:15.349Z,6.40
2023-01-08T23:59:01.440Z,6.40
